32nd Annual Trail Trot - 2km, 5km, 10km | Zone4.ca



32nd Annual Trail Trot - 2km, 5km, 10km

Date: Sep 24, 2017
Official  Results
Location: Hiawatha Highlands
Host Club: Soo Finnish Nordic

Jury
Technical Delegate:   
Chief of Competition:   
Chief of Course:   
Coach:   
Coach:   
Obs. Time:
Wind Vel:   Wind Dir:
Air Temp: Snow Temp:
Weather: Snow Cond:

5km: Female 5 km. Mass Start    
PL Bib Name SubCategory Rnk Team Time Diff
1 306 Alana McKenzie Female 5K <=14 1/6   0:25:18.9  
2 309 Talyn Tait Female 5K 15-19 1/3 Algoma University 0:26:40.7 +1:21.8
3 304 Cali-Anna Elliott Female 5K <=14 2/6 Korah 0:28:33.3 +3:14.4
4 328 Daniela Gebhart Female 5K 50-59 1/3   0:29:30.5 +4:11.6
5 312 Marissa Ditoro Female 5K 20-29 1/2 Algoma University 0:29:59.7 +4:40.8
6 317 Jennifer Foote Female 5K 30-39 1/7   0:30:32.9 +5:14.0
7 324 Ildiko Horvath Female 5K 40-49 1/5   0:30:47.2 +5:28.3
8 302 Kailyn Brown Female 5K <=14 3/6   0:31:02.8 +5:43.9
9 325 Melissa Porco Female 5K 40-49 2/5   0:31:04.0 +5:45.1
10 318 Niki Maione Female 5K 30-39 2/7   0:32:50.4 +7:31.5
11 310 Démily Thibodeau Female 5K 15-19 2/3   0:34:54.9 +9:36.0
12 305 Avery Hemsworth Female 5K <=14 4/6 Korah 0:35:07.0 +9:48.1
13 327 Carla Speck Female 5K 40-49 3/5   0:35:32.0 +10:13.1
14 316 Melissa Euale Female 5K 30-39 3/7   0:35:32.5 +10:13.6
15 311 Taylor Dewling Female 5K 20-29 2/2 Algoma University 0:35:41.3 +10:22.4
16 308 Emily Pollard Female 5K 15-19 3/3 Sault College Cougars 0:36:38.5 +11:19.6
17 326 Julie Premo Female 5K 40-49 4/5   0:37:23.5 +12:04.6
18 320 Theresa Mudge Female 5K 30-39 4/7   0:37:24.2 +12:05.3
19 322 Amanda Towell Female 5K 30-39 5/7   0:37:57.7 +12:38.8
20 301 Olivia Bernard Female 5K <=14 5/6   0:39:24.6 +14:05.7
21 307 Ruth Galinis Female 5K >=60 1/1   0:42:08.7 +16:49.8
22 331 Susan Silver Female 5K 50-59 2/3   0:42:10.6 +16:51.7
23 319 Suzanne Morin Female 5K 30-39 6/7   0:42:19.2 +17:00.3
24 330 Diane Mohammadi Female 5K 50-59 3/3   0:45:17.1 +19:58.2
25 303 Rowan Cartmill Female 5K <=14 6/6   0:49:24.3 +24:05.4
26 323 Riley Cartmill Female 5K 40-49 5/5   0:49:34.8 +24:15.9
27 315 Amber Arndt Female 5K 30-39 7/7   0:49:53.2 +24:34.3
DNF 313 Emily Maccarone Female 5K 20-29 *   *** ***
DNF 314 Shaelyn Stewart Female 5K 20-29 * Sault College Cougars *** ***
DNF 329 Catherine Maccarone Female 5K 50-59 *   *** ***


Results are posted through an automated system by licenced clubs. For inquires about result corrections please contact the race organizer.

Copyright 2019 - Zone4 Systems zone4.ca       Privacy Policy     Delivery/Refund Policy     Terms of Service    Contact Zone4